createdAt,value
2023-01-07T22:14:14.097Z,10.64
2023-01-07T22:15:13.924Z,10.62
2023-01-07T22:16:13.915Z,10.57
2023-01-07T22:17:13.831Z,10.64
2023-01-07T22:18:13.776Z,10.58
2023-01-07T22:19:13.723Z,10.58
2023-01-07T22:20:13.679Z,10.65
2023-01-07T22:21:13.626Z,10.62
2023-01-07T22:22:13.577Z,10.68
2023-01-07T22:23:13.530Z,10.59
2023-01-07T22:24:13.479Z,10.64
2023-01-07T22:25:13.437Z,10.58
2023-01-07T22:26:13.386Z,10.59
2023-01-07T22:27:13.343Z,10.64
2023-01-07T22:28:13.293Z,10.62
2023-01-07T22:29:13.247Z,10.62
2023-01-07T22:30:13.315Z,10.64
2023-01-07T22:31:13.191Z,10.62
2023-01-07T22:32:13.118Z,10.61
2023-01-07T22:33:13.074Z,10.61
2023-01-07T22:34:13.017Z,10.68
2023-01-07T22:35:12.972Z,10.72
2023-01-07T22:36:12.926Z,10.67
2023-01-07T22:37:12.884Z,10.69
2023-01-07T22:38:12.836Z,10.71
2023-01-07T22:39:12.792Z,10.69
2023-01-07T22:40:12.748Z,10.72
2023-01-07T22:41:12.704Z,10.72
2023-01-07T22:42:12.656Z,10.75
2023-01-07T22:43:12.617Z,10.75
2023-01-07T22:44:12.574Z,10.69
2023-01-07T22:45:12.539Z,10.68
2023-01-07T22:46:12.653Z,10.71
2023-01-07T22:47:12.430Z,10.77
2023-01-07T22:48:12.382Z,10.80
2023-01-07T22:49:12.352Z,10.80
2023-01-07T22:50:12.296Z,10.77
2023-01-07T22:51:12.253Z,10.86
2023-01-07T22:52:12.209Z,10.87
2023-01-07T22:53:12.163Z,10.77
2023-01-07T22:54:12.119Z,10.94
2023-01-07T22:55:12.078Z,10.83
2023-01-07T22:56:12.037Z,10.94
2023-01-07T22:57:11.997Z,10.86
2023-01-07T22:58:11.942Z,10.86
2023-01-07T22:59:11.898Z,10.89
2023-01-07T23:00:11.848Z,10.97
2023-01-07T23:01:11.900Z,11.00
2023-01-07T23:02:11.885Z,10.95
2023-01-07T23:03:11.802Z,11.05
2023-01-07T23:04:11.766Z,10.98
2023-01-07T23:05:11.627Z,11.07
2023-01-07T23:06:11.588Z,11.08
2023-01-07T23:07:11.542Z,11.07
2023-01-07T23:08:11.505Z,11.07
2023-01-07T23:09:11.462Z,11.10
2023-01-07T23:10:11.406Z,11.01
2023-01-07T23:11:11.364Z,11.16
2023-01-07T23:12:11.437Z,11.07
2023-01-07T23:13:11.273Z,11.12
2023-01-07T23:14:11.231Z,11.15
2023-01-07T23:15:11.187Z,11.07
2023-01-07T23:16:11.177Z,11.19
2023-01-07T23:17:11.095Z,11.20
2023-01-07T23:18:11.188Z,11.13
2023-01-07T23:19:11.014Z,11.13
2023-01-07T23:20:10.960Z,11.12
2023-01-07T23:21:10.932Z,11.19
2023-01-07T23:22:10.876Z,11.12
2023-01-07T23:23:10.830Z,11.20
2023-01-07T23:24:10.784Z,11.20
2023-01-07T23:25:10.743Z,11.20
2023-01-07T23:26:10.739Z,11.19
2023-01-07T23:27:10.661Z,11.18
2023-01-07T23:28:10.685Z,11.22
2023-01-07T23:29:10.656Z,11.20
2023-01-07T23:30:10.522Z,11.22
2023-01-07T23:31:10.579Z,11.20
2023-01-07T23:32:10.774Z,11.19
2023-01-07T23:33:10.418Z,11.23
2023-01-07T23:34:10.624Z,11.27
2023-01-07T23:35:10.310Z,11.22
2023-01-07T23:36:10.291Z,11.23
2023-01-07T23:37:10.211Z,11.34
2023-01-07T23:38:10.166Z,11.22
2023-01-07T23:39:10.120Z,11.22
2023-01-07T23:40:10.093Z,11.30
2023-01-07T23:41:10.032Z,11.31
2023-01-07T23:42:10.090Z,11.23
2023-01-07T23:43:09.945Z,11.27
2023-01-07T23:44:09.908Z,11.35
2023-01-07T23:45:09.855Z,11.23
2023-01-07T23:46:09.877Z,11.33
2023-01-07T23:47:09.767Z,11.31
2023-01-07T23:48:09.729Z,11.33
2023-01-07T23:49:09.679Z,11.26
2023-01-07T23:50:09.903Z,11.27
2023-01-07T23:51:09.636Z,11.20
2023-01-07T23:52:09.563Z,11.31
2023-01-07T23:53:09.501Z,11.27
2023-01-07T23:54:09.457Z,11.22
2023-01-07T23:55:09.420Z,11.30
2023-01-07T23:56:09.367Z,11.26
2023-01-07T23:57:09.325Z,11.33
2023-01-07T23:58:09.279Z,11.31
2023-01-07T23:59:09.241Z,11.27
